createdAt,value
2023-05-01T00:02:07.749Z,73
2023-05-01T00:04:38.191Z,73
2023-05-01T00:07:09.056Z,74
2023-05-01T00:09:39.697Z,74
2023-05-01T00:12:10.551Z,74
2023-05-01T00:14:41.471Z,74
2023-05-01T00:17:12.380Z,74
2023-05-01T00:19:43.332Z,73
2023-05-01T00:22:27.722Z,74
2023-05-01T00:24:58.977Z,75
2023-05-01T00:27:29.663Z,75
2023-05-01T00:30:00.618Z,75
2023-05-01T00:35:07.741Z,75
2023-05-01T00:37:38.517Z,75
2023-05-01T00:40:18.896Z,75
2023-05-01T00:42:48.100Z,74
2023-05-01T00:45:18.624Z,74
2023-05-01T00:47:49.238Z,73
2023-05-01T00:50:20.090Z,73
2023-05-01T00:53:00.916Z,73
2023-05-01T00:55:36.675Z,73
2023-05-01T00:58:07.301Z,73
2023-05-01T01:00:37.789Z,74
2023-05-01T01:03:09.036Z,73
2023-05-01T01:05:39.616Z,73
2023-05-01T01:08:15.921Z,74
2023-05-01T01:10:46.567Z,74
2023-05-01T01:13:26.089Z,73
2023-05-01T01:15:56.840Z,74
2023-05-01T01:18:40.474Z,73
2023-05-01T01:21:11.274Z,74
2023-05-01T01:23:42.353Z,73
2023-05-01T01:26:13.242Z,74
2023-05-01T01:28:43.623Z,74
2023-05-01T01:31:14.358Z,74
2023-05-01T01:33:45.933Z,74
2023-05-01T01:36:17.135Z,74
2023-05-01T01:38:48.733Z,74
2023-05-01T01:41:19.853Z,74
2023-05-01T01:43:50.963Z,74
2023-05-01T01:46:21.750Z,74
2023-05-01T01:48:52.661Z,74
2023-05-01T01:51:23.733Z,74
2023-05-01T01:54:00.554Z,75
2023-05-01T01:56:31.799Z,74
2023-05-01T01:59:02.872Z,74
2023-05-01T02:01:33.608Z,74
2023-05-01T02:04:03.720Z,74
2023-05-01T02:06:34.309Z,73
2023-05-01T02:09:06.086Z,73
2023-05-01T02:11:35.033Z,73
2023-05-01T02:14:10.222Z,73
2023-05-01T02:16:42.370Z,73
2023-05-01T02:19:20.093Z,73
2023-05-01T02:21:49.718Z,73
2023-05-01T02:24:20.673Z,73
2023-05-01T02:26:51.274Z,73
2023-05-01T02:29:21.798Z,73
2023-05-01T02:31:53.944Z,74
2023-05-01T02:34:24.436Z,74
2023-05-01T02:36:55.061Z,75
2023-05-01T02:39:25.619Z,75
2023-05-01T02:41:56.120Z,75
2023-05-01T02:44:26.116Z,75
2023-05-01T02:46:54.635Z,75
2023-05-01T02:49:25.108Z,75
2023-05-01T02:51:56.335Z,75
2023-05-01T02:54:27.022Z,75
2023-05-01T02:56:59.572Z,75
2023-05-01T02:59:30.035Z,75
2023-05-01T03:02:00.580Z,75
2023-05-01T03:04:30.918Z,75
2023-05-01T03:07:02.238Z,74
2023-05-01T03:09:33.857Z,75
2023-05-01T03:12:06.393Z,75
2023-05-01T03:14:37.155Z,74
2023-05-01T03:17:07.304Z,74
2023-05-01T03:19:40.772Z,74
2023-05-01T03:22:13.578Z,74
2023-05-01T03:24:42.706Z,74
2023-05-01T03:27:23.926Z,74
2023-05-01T03:29:54.235Z,74
2023-05-01T03:32:29.362Z,74
2023-05-01T03:34:59.524Z,73
2023-05-01T03:37:29.978Z,73
2023-05-01T03:40:18.482Z,73
2023-05-01T03:45:39.082Z,73
2023-05-01T03:51:14.654Z,73
2023-05-01T03:53:44.327Z,73
2023-05-01T03:56:19.098Z,73
2023-05-01T04:01:22.574Z,74
2023-05-01T04:06:24.058Z,74
2023-05-01T04:08:59.683Z,74
2023-05-01T04:11:29.261Z,74
2023-05-01T04:14:02.455Z,74
2023-05-01T04:16:54.295Z,74
2023-05-01T04:19:28.094Z,73
2023-05-01T04:21:58.065Z,73
2023-05-01T04:24:33.697Z,73
2023-05-01T04:27:06.384Z,73
2023-05-01T04:29:36.178Z,73
2023-05-01T04:32:07.161Z,73
2023-05-01T04:34:36.249Z,73
2023-05-01T04:37:07.140Z,73
2023-05-01T04:39:37.926Z,73
2023-05-01T04:42:08.861Z,73
2023-05-01T04:44:41.762Z,73
2023-05-01T04:47:12.796Z,72
2023-05-01T04:49:43.551Z,72
2023-05-01T04:52:16.653Z,73
2023-05-01T04:54:47.692Z,72
2023-05-01T04:57:18.258Z,72
2023-05-01T04:59:47.953Z,72
2023-05-01T05:02:18.828Z,72
2023-05-01T05:04:49.185Z,72
2023-05-01T05:07:19.904Z,72
2023-05-01T05:09:50.317Z,72
2023-05-01T05:12:21.482Z,72
2023-05-01T05:14:52.744Z,72
2023-05-01T05:17:23.397Z,72
2023-05-01T05:22:31.891Z,72
2023-05-01T05:25:03.784Z,71
2023-05-01T05:27:34.434Z,71
2023-05-01T05:30:05.467Z,71
2023-05-01T05:32:36.464Z,71
2023-05-01T05:35:07.493Z,70
2023-05-01T05:37:38.948Z,70
2023-05-01T05:40:10.131Z,70
2023-05-01T05:42:45.627Z,70
2023-05-01T05:45:16.214Z,72
2023-05-01T05:47:46.590Z,71
2023-05-01T05:50:17.117Z,71
2023-05-01T05:52:48.079Z,72
2023-05-01T05:55:29.410Z,72
2023-05-01T05:58:01.042Z,71
2023-05-01T06:00:32.135Z,71
2023-05-01T06:03:03.366Z,70
2023-05-01T06:05:34.369Z,70
2023-05-01T06:08:04.773Z,70
2023-05-01T06:10:35.526Z,70
2023-05-01T06:13:13.290Z,70
2023-05-01T06:15:37.763Z,69
2023-05-01T06:18:09.212Z,70
2023-05-01T06:20:38.554Z,70
2023-05-01T06:23:09.597Z,69
2023-05-01T06:25:40.461Z,69
2023-05-01T06:28:11.909Z,69
2023-05-01T06:30:45.261Z,69
2023-05-01T06:33:22.342Z,69
2023-05-01T06:35:53.291Z,70
2023-05-01T06:38:26.342Z,69
2023-05-01T06:43:43.354Z,68
2023-05-01T06:46:17.049Z,67
2023-05-01T06:51:46.387Z,67
2023-05-01T06:54:19.111Z,66
2023-05-01T06:57:10.539Z,66
2023-05-01T06:59:50.219Z,65
2023-05-01T07:04:57.290Z,65
2023-05-01T07:07:31.727Z,65
2023-05-01T07:10:09.592Z,65
2023-05-01T07:12:40.642Z,64
2023-05-01T07:15:20.402Z,64
2023-05-01T07:18:03.860Z,63
2023-05-01T07:26:00.896Z,63
2023-05-01T07:28:37.558Z,64
2023-05-01T07:31:11.893Z,64
2023-05-01T07:33:54.287Z,64
2023-05-01T07:36:30.028Z,63
2023-05-01T07:39:06.581Z,63
2023-05-01T07:41:43.977Z,63
2023-05-01T07:44:15.362Z,63
2023-05-01T07:46:46.399Z,63
2023-05-01T07:49:16.537Z,63
2023-05-01T07:51:47.869Z,62
2023-05-01T07:54:18.889Z,62
2023-05-01T07:56:49.723Z,62
2023-05-01T07:59:20.109Z,62
2023-05-01T08:01:50.778Z,62
2023-05-01T08:06:58.737Z,61
2023-05-01T08:09:30.561Z,61
2023-05-01T08:12:01.623Z,61
2023-05-01T08:14:30.795Z,61
2023-05-01T08:17:01.057Z,60
2023-05-01T08:19:40.299Z,60
2023-05-01T08:22:11.440Z,60
2023-05-01T08:24:45.229Z,60
2023-05-01T08:27:21.771Z,60
2023-05-01T08:29:53.084Z,60
2023-05-01T08:32:24.340Z,60
2023-05-01T08:34:55.508Z,59
2023-05-01T08:37:33.109Z,59
2023-05-01T08:40:04.329Z,59
2023-05-01T08:45:16.141Z,59
2023-05-01T08:47:50.607Z,59
2023-05-01T08:50:24.163Z,58
2023-05-01T08:52:55.291Z,59
2023-05-01T08:55:26.724Z,59
2023-05-01T08:57:57.334Z,59
2023-05-01T09:00:42.700Z,58
2023-05-01T09:03:14.950Z,59
2023-05-01T09:05:45.868Z,59
2023-05-01T09:08:16.570Z,58
2023-05-01T09:10:52.819Z,58
2023-05-01T09:13:23.377Z,58
2023-05-01T09:15:58.213Z,58
2023-05-01T09:18:28.533Z,57
2023-05-01T09:20:59.926Z,57
2023-05-01T09:23:31.233Z,57
2023-05-01T09:26:14.660Z,57
2023-05-01T09:29:08.680Z,56
2023-05-01T09:31:50.044Z,56
2023-05-01T09:34:21.023Z,56
2023-05-01T09:39:33.321Z,54
2023-05-01T09:42:12.496Z,55
2023-05-01T09:44:44.718Z,54
2023-05-01T09:50:11.342Z,54
2023-05-01T09:52:51.483Z,54
2023-05-01T09:58:24.883Z,54
2023-05-01T10:01:04.327Z,53
2023-05-01T10:03:41.761Z,53
2023-05-01T10:08:58.290Z,52
2023-05-01T10:14:06.413Z,53
2023-05-01T10:16:37.069Z,51
2023-05-01T10:24:32.307Z,52
2023-05-01T10:27:03.221Z,53
2023-05-01T10:29:33.324Z,54
2023-05-01T10:32:03.406Z,53
2023-05-01T10:34:33.743Z,54
2023-05-01T10:37:08.798Z,53
2023-05-01T10:39:38.804Z,52
2023-05-01T10:42:17.934Z,53
2023-05-01T10:44:46.980Z,53
2023-05-01T10:47:23.058Z,52
2023-05-01T10:49:54.278Z,52
2023-05-01T10:52:26.159Z,52
2023-05-01T10:54:57.318Z,51
2023-05-01T10:57:39.834Z,51
2023-05-01T11:00:11.357Z,50
2023-05-01T11:02:41.876Z,51
2023-05-01T11:05:13.024Z,51
2023-05-01T11:07:44.103Z,49
2023-05-01T11:10:16.352Z,50
2023-05-01T11:12:47.130Z,49
2023-05-01T11:15:21.879Z,50
2023-05-01T11:17:53.145Z,50
2023-05-01T11:20:24.266Z,50
2023-05-01T11:22:54.873Z,51
2023-05-01T11:25:25.799Z,49
2023-05-01T11:27:57.003Z,49
2023-05-01T11:30:32.894Z,48
2023-05-01T11:33:03.908Z,48
2023-05-01T11:35:35.712Z,48
2023-05-01T11:38:06.752Z,48
2023-05-01T11:40:35.834Z,48
2023-05-01T11:43:06.715Z,47
2023-05-01T11:45:38.234Z,47
2023-05-01T11:48:09.319Z,48
2023-05-01T11:50:40.061Z,46
2023-05-01T11:53:11.198Z,48
2023-05-01T11:55:42.901Z,45
2023-05-01T11:58:13.734Z,46
2023-05-01T12:00:44.222Z,45
2023-05-01T12:03:15.820Z,45
2023-05-01T12:06:00.402Z,45
2023-05-01T12:08:30.917Z,42
2023-05-01T12:10:59.500Z,44
2023-05-01T12:13:29.952Z,44
2023-05-01T12:16:00.473Z,43
2023-05-01T12:18:31.270Z,44
2023-05-01T12:21:02.129Z,43
2023-05-01T12:23:36.020Z,43
2023-05-01T12:26:07.008Z,42
2023-05-01T12:28:38.233Z,42
2023-05-01T12:31:10.670Z,41
2023-05-01T12:33:44.291Z,42
2023-05-01T12:36:14.681Z,41
2023-05-01T12:38:45.414Z,41
2023-05-01T12:41:16.380Z,42
2023-05-01T12:43:47.436Z,41
2023-05-01T12:46:18.894Z,41
2023-05-01T12:48:54.393Z,42
2023-05-01T12:51:23.436Z,41
2023-05-01T12:53:55.929Z,40
2023-05-01T12:56:26.121Z,40
2023-05-01T12:58:57.840Z,40
2023-05-01T13:04:02.708Z,41
2023-05-01T13:06:33.546Z,41
2023-05-01T13:09:04.542Z,40
2023-05-01T13:11:35.005Z,38
2023-05-01T13:14:05.897Z,40
2023-05-01T13:16:36.386Z,41
2023-05-01T13:19:07.201Z,40
2023-05-01T13:21:38.117Z,40
2023-05-01T13:24:08.986Z,41
2023-05-01T13:26:39.631Z,40
2023-05-01T13:29:10.660Z,40
2023-05-01T13:31:42.597Z,40
2023-05-01T13:34:12.741Z,39
2023-05-01T13:36:48.977Z,39
2023-05-01T13:39:24.550Z,39
2023-05-01T13:44:34.335Z,39
2023-05-01T13:47:10.987Z,39
2023-05-01T13:49:55.331Z,39
2023-05-01T13:52:29.504Z,38
2023-05-01T13:55:08.538Z,39
2023-05-01T14:02:44.813Z,40
2023-05-01T14:05:28.283Z,39
2023-05-01T14:08:02.583Z,39
2023-05-01T14:10:42.024Z,39
2023-05-01T14:13:11.389Z,39
2023-05-01T14:15:42.134Z,39
2023-05-01T14:18:11.712Z,39
2023-05-01T14:20:54.183Z,40
2023-05-01T14:23:39.047Z,40
2023-05-01T14:26:08.128Z,40
2023-05-01T14:28:38.346Z,40
2023-05-01T14:31:07.974Z,40
2023-05-01T14:33:38.544Z,40
2023-05-01T14:36:11.914Z,41
2023-05-01T14:38:42.163Z,40
2023-05-01T14:41:13.346Z,40
2023-05-01T14:43:44.165Z,40
2023-05-01T14:46:23.385Z,40
2023-05-01T14:48:57.042Z,40
2023-05-01T14:51:28.131Z,40
2023-05-01T14:53:57.680Z,40
2023-05-01T14:56:28.077Z,41
2023-05-01T14:58:59.138Z,41
2023-05-01T15:01:35.894Z,41
2023-05-01T15:04:08.942Z,42
2023-05-01T15:06:42.693Z,41
2023-05-01T15:09:18.213Z,42
2023-05-01T15:11:49.198Z,43
2023-05-01T15:14:28.496Z,43
2023-05-01T15:17:06.893Z,42
2023-05-01T15:19:37.320Z,42
2023-05-01T15:22:07.943Z,43
2023-05-01T15:24:42.809Z,43
2023-05-01T15:27:14.348Z,43
2023-05-01T15:29:49.543Z,43
2023-05-01T15:32:24.455Z,42
2023-05-01T15:34:55.916Z,42
2023-05-01T15:37:26.095Z,41
2023-05-01T15:40:01.260Z,41
2023-05-01T15:42:32.536Z,42
2023-05-01T15:50:37.455Z,42
2023-05-01T15:53:25.251Z,42
2023-05-01T15:56:00.373Z,42
2023-05-01T15:58:35.851Z,42
2023-05-01T16:01:16.484Z,42
2023-05-01T16:03:56.363Z,42
2023-05-01T16:06:32.274Z,43
2023-05-01T16:09:25.917Z,43
2023-05-01T16:11:56.315Z,43
2023-05-01T16:14:27.227Z,43
2023-05-01T16:16:57.889Z,43
2023-05-01T16:19:29.247Z,43
2023-05-01T16:22:00.400Z,43
2023-05-01T16:27:08.272Z,43
2023-05-01T16:29:40.711Z,43
2023-05-01T16:32:11.050Z,43
2023-05-01T16:34:40.250Z,43
2023-05-01T16:37:10.726Z,43
2023-05-01T16:39:41.570Z,43
2023-05-01T16:44:48.466Z,43
2023-05-01T16:47:24.659Z,43
2023-05-01T16:49:55.988Z,44
2023-05-01T16:52:26.899Z,44
2023-05-01T16:54:57.820Z,44
2023-05-01T16:57:34.698Z,44
2023-05-01T17:00:05.556Z,44
2023-05-01T17:02:45.103Z,44
2023-05-01T17:05:18.674Z,44
2023-05-01T17:07:59.691Z,44
2023-05-01T17:10:30.739Z,43
2023-05-01T17:13:01.609Z,43
2023-05-01T17:15:32.483Z,43
2023-05-01T17:18:03.733Z,42
2023-05-01T17:20:35.028Z,43
2023-05-01T17:23:13.841Z,43
2023-05-01T17:25:45.201Z,42
2023-05-01T17:28:17.306Z,41
2023-05-01T17:30:48.673Z,43
2023-05-01T17:33:19.399Z,42
2023-05-01T17:35:51.177Z,42
2023-05-01T17:38:21.939Z,42
2023-05-01T17:40:52.422Z,42
2023-05-01T17:43:23.427Z,41
2023-05-01T17:45:52.808Z,42
2023-05-01T17:48:23.749Z,42
2023-05-01T17:50:59.446Z,43
2023-05-01T17:53:30.693Z,41
2023-05-01T17:56:02.400Z,42
2023-05-01T17:58:38.448Z,42
2023-05-01T18:03:46.759Z,41
2023-05-01T18:06:17.369Z,42
2023-05-01T18:08:50.373Z,42
2023-05-01T18:11:20.713Z,42
2023-05-01T18:13:50.481Z,42
2023-05-01T18:16:24.925Z,42
2023-05-01T18:19:05.609Z,42
2023-05-01T18:21:38.732Z,42
2023-05-01T18:24:19.179Z,42
2023-05-01T18:29:25.552Z,43
2023-05-01T18:34:41.539Z,43
2023-05-01T18:37:12.004Z,43
2023-05-01T18:39:44.428Z,43
2023-05-01T18:42:14.874Z,44
2023-05-01T18:47:21.749Z,44
2023-05-01T18:49:58.033Z,44
2023-05-01T18:52:30.465Z,44
2023-05-01T18:55:05.422Z,44
2023-05-01T18:57:34.658Z,44
2023-05-01T19:00:05.441Z,44
2023-05-01T19:02:36.360Z,44
2023-05-01T19:05:08.187Z,44
2023-05-01T19:07:38.699Z,44
2023-05-01T19:10:09.506Z,45
2023-05-01T19:12:41.049Z,45
2023-05-01T19:15:17.217Z,45
2023-05-01T19:17:51.200Z,45
2023-05-01T19:20:22.672Z,45
2023-05-01T19:23:00.360Z,45
2023-05-01T19:25:33.705Z,45
2023-05-01T19:28:09.061Z,46
2023-05-01T19:30:47.283Z,45
2023-05-01T19:33:16.026Z,46
2023-05-01T19:35:48.661Z,46
2023-05-01T19:38:18.089Z,46
2023-05-01T19:40:46.567Z,46
2023-05-01T19:43:18.810Z,46
2023-05-01T19:45:49.940Z,46
2023-05-01T19:48:20.889Z,46
2023-05-01T19:50:58.435Z,47
2023-05-01T19:53:30.717Z,47
2023-05-01T19:56:02.528Z,46
2023-05-01T19:58:34.177Z,47
2023-05-01T20:01:06.367Z,47
2023-05-01T20:03:37.050Z,48
2023-05-01T20:06:07.881Z,47
2023-05-01T20:08:37.127Z,48
2023-05-01T20:11:07.301Z,48
2023-05-01T20:13:38.082Z,47
2023-05-01T20:16:10.784Z,48
2023-05-01T20:18:41.430Z,48
2023-05-01T20:21:12.327Z,48
2023-05-01T20:23:42.895Z,48
2023-05-01T20:26:13.804Z,48
2023-05-01T20:28:44.420Z,48
2023-05-01T20:31:15.500Z,49
2023-05-01T20:33:45.958Z,49
2023-05-01T20:36:16.585Z,49
2023-05-01T20:38:53.732Z,49
2023-05-01T20:41:25.900Z,49
2023-05-01T20:44:09.625Z,49
2023-05-01T20:46:40.686Z,49
2023-05-01T20:49:15.152Z,49
2023-05-01T20:51:43.782Z,49
2023-05-01T20:54:19.841Z,49
2023-05-01T20:56:50.467Z,50
2023-05-01T20:59:19.084Z,49
2023-05-01T21:01:49.943Z,50
2023-05-01T21:04:21.024Z,50
2023-05-01T21:06:52.328Z,50
2023-05-01T21:09:22.810Z,50
2023-05-01T21:11:54.024Z,50
2023-05-01T21:14:24.405Z,50
2023-05-01T21:16:55.327Z,50
2023-05-01T21:19:26.709Z,50
2023-05-01T21:21:57.421Z,50
2023-05-01T21:24:28.804Z,50
2023-05-01T21:26:59.839Z,50
2023-05-01T21:29:30.751Z,50
2023-05-01T21:32:07.043Z,50
2023-05-01T21:37:26.197Z,50
2023-05-01T21:40:02.993Z,50
2023-05-01T21:42:32.884Z,50
2023-05-01T21:45:19.655Z,50
2023-05-01T21:47:52.536Z,50
2023-05-01T21:50:29.773Z,50
2023-05-01T21:53:00.794Z,50
2023-05-01T21:58:12.494Z,50
2023-05-01T22:00:55.615Z,50
2023-05-01T22:03:32.244Z,50
2023-05-01T22:06:06.050Z,50
2023-05-01T22:08:36.427Z,51
2023-05-01T22:11:08.425Z,50
2023-05-01T22:13:38.269Z,51
2023-05-01T22:16:09.785Z,50
2023-05-01T22:18:40.776Z,50
2023-05-01T22:21:11.500Z,51
2023-05-01T22:23:42.566Z,51
2023-05-01T22:26:14.345Z,51
2023-05-01T22:28:45.172Z,51
2023-05-01T22:31:16.064Z,51
2023-05-01T22:33:47.403Z,51
2023-05-01T22:36:19.894Z,51
2023-05-01T22:38:51.184Z,51
2023-05-01T22:41:21.997Z,51
2023-05-01T22:43:53.371Z,51
2023-05-01T22:46:23.951Z,51
2023-05-01T22:48:54.740Z,52
2023-05-01T22:51:25.781Z,51
2023-05-01T22:53:56.590Z,51
2023-05-01T22:56:28.137Z,51
2023-05-01T22:58:59.177Z,51
2023-05-01T23:01:30.062Z,51
2023-05-01T23:04:01.556Z,50
2023-05-01T23:06:32.425Z,50
2023-05-01T23:09:03.722Z,51
2023-05-01T23:11:41.230Z,51
2023-05-01T23:14:12.068Z,51
2023-05-01T23:16:48.245Z,50
2023-05-01T23:19:20.050Z,50
2023-05-01T23:21:50.974Z,51
2023-05-01T23:24:21.604Z,50
2023-05-01T23:26:52.124Z,50
2023-05-01T23:29:23.551Z,50
2023-05-01T23:31:58.755Z,50
2023-05-01T23:34:29.865Z,50
2023-05-01T23:37:00.521Z,51
2023-05-01T23:39:34.821Z,50
2023-05-01T23:44:54.105Z,50
2023-05-01T23:47:28.054Z,51
2023-05-01T23:50:00.788Z,51
2023-05-01T23:52:30.952Z,51
2023-05-01T23:55:01.331Z,52
2023-05-01T23:57:33.027Z,51
